createdAt,value
2023-03-17T00:01:05.564Z,1
2023-03-17T00:03:05.232Z,1
2023-03-17T00:05:05.355Z,1
2023-03-17T00:07:05.121Z,1
2023-03-17T00:09:08.949Z,1
2023-03-17T00:13:08.839Z,1
2023-03-17T00:15:05.164Z,1
2023-03-17T00:17:05.117Z,1
2023-03-17T00:19:05.709Z,1
2023-03-17T00:21:05.323Z,1
2023-03-17T00:23:05.250Z,1
2023-03-17T00:25:05.430Z,1
2023-03-17T00:27:05.816Z,1
2023-03-17T00:29:12.130Z,1
2023-03-17T00:31:05.249Z,1
2023-03-17T00:33:08.970Z,1
2023-03-17T00:35:05.717Z,1
2023-03-17T00:37:05.124Z,1
2023-03-17T00:39:05.729Z,1
2023-03-17T00:41:08.829Z,1
2023-03-17T00:43:08.521Z,1
2023-03-17T00:45:09.018Z,1
2023-03-17T00:47:12.136Z,1
2023-03-17T00:49:05.695Z,1
2023-03-17T00:51:05.761Z,1
2023-03-17T00:53:05.171Z,1
2023-03-17T00:55:05.775Z,1
2023-03-17T00:57:05.544Z,1
2023-03-17T00:59:05.225Z,1
2023-03-17T01:01:12.208Z,1
2023-03-17T01:03:12.240Z,1
2023-03-17T01:05:06.859Z,1
2023-03-17T01:07:09.018Z,1
2023-03-17T01:09:05.110Z,1
2023-03-17T01:11:05.186Z,1
2023-03-17T01:13:05.127Z,1
2023-03-17T01:15:08.945Z,1
2023-03-17T01:17:05.191Z,1
2023-03-17T01:19:05.808Z,1
2023-03-17T01:21:05.107Z,1
2023-03-17T01:23:05.179Z,1
2023-03-17T01:25:05.397Z,1
2023-03-17T01:27:06.073Z,1
2023-03-17T01:29:08.851Z,1
2023-03-17T01:31:05.836Z,1
2023-03-17T01:33:05.158Z,1
2023-03-17T01:35:05.148Z,1
2023-03-17T01:37:05.817Z,1
2023-03-17T01:39:05.110Z,1
2023-03-17T01:41:05.199Z,1
2023-03-17T01:43:05.133Z,1
2023-03-17T01:45:06.001Z,1
2023-03-17T01:47:05.271Z,1
2023-03-17T01:49:05.166Z,1
2023-03-17T01:51:05.140Z,1
2023-03-17T01:53:05.303Z,1
2023-03-17T01:55:05.449Z,1
2023-03-17T01:57:11.995Z,1
2023-03-17T01:59:08.908Z,1
2023-03-17T02:01:05.349Z,1
2023-03-17T02:03:08.670Z,1
2023-03-17T02:05:11.250Z,1
2023-03-17T02:07:08.683Z,1
2023-03-17T02:09:05.237Z,1
2023-03-17T02:11:08.773Z,1
2023-03-17T02:13:05.152Z,1
2023-03-17T02:15:05.134Z,1
2023-03-17T02:17:05.907Z,1
2023-03-17T02:19:05.736Z,1
2023-03-17T02:21:05.491Z,1
2023-03-17T02:23:05.920Z,1
2023-03-17T02:25:08.376Z,1
2023-03-17T02:27:05.848Z,1
2023-03-17T02:31:08.645Z,1
2023-03-17T02:33:05.778Z,1
2023-03-17T02:35:09.149Z,1
2023-03-17T02:37:05.448Z,1
2023-03-17T02:39:12.165Z,1
2023-03-17T02:41:05.128Z,1
2023-03-17T02:43:05.122Z,1
2023-03-17T02:45:05.263Z,1
2023-03-17T02:47:09.043Z,1
2023-03-17T02:49:05.691Z,1
2023-03-17T02:51:05.158Z,1
2023-03-17T02:53:05.927Z,1
2023-03-17T02:55:08.921Z,1
2023-03-17T02:57:05.146Z,1
2023-03-17T02:59:08.986Z,1
2023-03-17T03:01:08.478Z,1
2023-03-17T03:03:05.164Z,1
2023-03-17T03:05:09.079Z,1
2023-03-17T03:07:05.820Z,1
2023-03-17T03:09:09.127Z,1
2023-03-17T03:11:05.718Z,1
2023-03-17T03:13:05.884Z,1
2023-03-17T03:15:05.877Z,1
2023-03-17T03:17:05.768Z,1
2023-03-17T03:19:05.230Z,1
2023-03-17T03:21:05.147Z,1
2023-03-17T03:23:05.228Z,1
2023-03-17T03:25:06.064Z,1
2023-03-17T03:27:05.700Z,1
2023-03-17T03:29:05.219Z,1
2023-03-17T03:31:05.380Z,1
2023-03-17T03:33:05.489Z,1
2023-03-17T03:35:05.418Z,1
2023-03-17T03:37:05.158Z,1
2023-03-17T03:39:05.146Z,1
2023-03-17T03:41:05.209Z,1
2023-03-17T03:43:16.185Z,1
2023-03-17T03:45:08.677Z,1
2023-03-17T03:47:05.166Z,1
2023-03-17T03:49:05.272Z,1
2023-03-17T03:51:07.044Z,1
2023-03-17T03:53:05.136Z,1
2023-03-17T03:55:05.143Z,1
2023-03-17T03:57:05.150Z,1
2023-03-17T03:59:05.211Z,1
2023-03-17T04:01:05.183Z,1
2023-03-17T04:03:05.605Z,1
2023-03-17T04:05:12.208Z,1
2023-03-17T04:07:05.178Z,1
2023-03-17T04:09:05.189Z,1
2023-03-17T04:11:08.937Z,1
2023-03-17T04:13:05.945Z,1
2023-03-17T04:15:05.177Z,1
2023-03-17T04:17:05.150Z,1
2023-03-17T04:19:09.178Z,1
2023-03-17T04:21:05.092Z,1
2023-03-17T04:23:05.179Z,1
2023-03-17T04:25:05.225Z,1
2023-03-17T04:27:08.316Z,1
2023-03-17T04:29:05.222Z,1
2023-03-17T04:31:12.511Z,1
2023-03-17T04:33:06.019Z,1
2023-03-17T04:35:09.116Z,1
2023-03-17T04:37:05.602Z,1
2023-03-17T04:39:05.636Z,0
2023-03-17T04:41:09.191Z,0
2023-03-17T04:43:12.388Z,0
2023-03-17T04:45:09.286Z,0
2023-03-17T04:47:05.295Z,0.1
2023-03-17T04:49:08.415Z,0.1
2023-03-17T04:51:05.223Z,0.2
2023-03-17T04:53:05.374Z,0.3
2023-03-17T04:55:09.450Z,0.4
2023-03-17T04:57:05.821Z,0.5
2023-03-17T04:59:12.224Z,0.8
2023-03-17T05:01:06.106Z,1.2
2023-03-17T05:03:09.012Z,1.6
2023-03-17T05:05:08.520Z,2.5
2023-03-17T05:07:05.685Z,3.5
2023-03-17T05:09:08.612Z,5
2023-03-17T05:11:08.283Z,7
2023-03-17T05:13:05.292Z,10
2023-03-17T05:15:05.352Z,14.2
2023-03-17T05:17:07.542Z,17.3
2023-03-17T05:19:08.462Z,22.2
2023-03-17T05:21:05.397Z,27.1
2023-03-17T05:23:09.247Z,34.8
2023-03-17T05:25:08.378Z,44.7
2023-03-17T05:27:05.254Z,54.6
2023-03-17T05:31:05.369Z,90
2023-03-17T05:33:05.378Z,115.6
2023-03-17T05:35:08.917Z,148.4
2023-03-17T05:37:05.284Z,190.6
2023-03-17T05:39:05.612Z,232.8
2023-03-17T05:41:08.261Z,270.4
2023-03-17T05:43:05.963Z,330.3
2023-03-17T05:47:05.932Z,424.1
2023-03-17T05:49:08.390Z,492.7
2023-03-17T05:51:05.338Z,544.6
2023-03-17T05:53:05.978Z,601.8
2023-03-17T05:55:09.330Z,665.1
2023-03-17T05:57:05.309Z,735.1
2023-03-17T05:59:05.471Z,812.4
2023-03-17T06:01:05.465Z,897.8
2023-03-17T06:03:05.875Z,992.3
2023-03-17T06:05:08.332Z,1152.9
2023-03-17T06:07:08.582Z,1274.1
2023-03-17T06:09:05.331Z,1408.1
2023-03-17T06:11:05.324Z,1480.3
2023-03-17T06:13:05.391Z,1556.2
2023-03-17T06:15:05.341Z,1636
2023-03-17T06:17:05.337Z,1719.9
2023-03-17T06:19:05.438Z,1900.7
2023-03-17T06:21:05.934Z,1998.2
2023-03-17T06:23:06.212Z,2208.3
2023-03-17T06:25:05.953Z,2321.6
2023-03-17T06:27:02.663Z,2440.6
2023-03-17T06:29:05.504Z,2565.7
2023-03-17T06:31:07.191Z,2565.7
2023-03-17T06:33:05.482Z,2697.3
2023-03-17T06:35:09.134Z,2835.6
2023-03-17T06:37:05.329Z,2981
2023-03-17T06:39:08.404Z,2981
2023-03-17T06:41:05.245Z,2981
2023-03-17T06:43:08.540Z,3133.8
2023-03-17T06:45:05.372Z,3133.8
2023-03-17T06:47:05.474Z,3133.8
2023-03-17T06:49:05.585Z,3133.8
2023-03-17T06:51:05.342Z,3133.8
2023-03-17T06:53:05.331Z,3133.8
2023-03-17T06:55:06.086Z,3133.8
2023-03-17T06:57:09.208Z,2981
2023-03-17T06:59:05.758Z,2981
2023-03-17T07:01:05.860Z,3133.8
2023-03-17T07:03:05.191Z,3294.5
2023-03-17T07:05:05.436Z,3463.4
2023-03-17T07:07:09.061Z,6002.9
2023-03-17T07:09:09.218Z,9897.1
2023-03-17T07:11:05.210Z,11498.8
2023-03-17T07:13:09.042Z,14044.7
2023-03-17T07:17:05.196Z,16317.6
2023-03-17T07:19:05.266Z,17154.2
2023-03-17T07:21:05.220Z,17154.2
2023-03-17T07:23:11.874Z,18033.7
2023-03-17T07:25:09.365Z,18033.7
2023-03-17T07:27:05.359Z,18033.7
2023-03-17T07:29:05.429Z,18958.4
2023-03-17T07:31:05.461Z,19930.4
2023-03-17T07:33:05.496Z,20952.2
2023-03-17T07:35:05.368Z,20952.2
2023-03-17T07:37:09.022Z,20952.2
2023-03-17T07:39:05.661Z,20952.2
2023-03-17T07:41:12.524Z,20952.2
2023-03-17T07:43:05.359Z,20952.2
2023-03-17T07:45:05.864Z,22026.5
2023-03-17T07:47:09.244Z,20952.2
2023-03-17T07:49:08.408Z,8103.1
2023-03-17T07:51:09.222Z,5166.8
2023-03-17T07:53:09.202Z,4914.8
2023-03-17T07:55:05.598Z,4914.8
2023-03-17T07:57:09.104Z,4914.8
2023-03-17T07:59:05.311Z,5166.8
2023-03-17T08:01:05.472Z,4914.8
2023-03-17T08:03:10.082Z,5166.8
2023-03-17T08:05:05.397Z,5431.7
2023-03-17T08:07:05.365Z,6002.9
2023-03-17T08:09:05.638Z,10938
2023-03-17T08:11:09.330Z,10404.6
2023-03-17T08:13:08.982Z,8955.3
2023-03-17T08:15:08.754Z,8955.3
2023-03-17T08:17:05.442Z,8103.1
2023-03-17T08:19:08.687Z,8103.1
2023-03-17T08:21:05.939Z,7707.9
2023-03-17T08:23:05.430Z,8103.1
2023-03-17T08:25:06.147Z,8103.1
2023-03-17T08:27:06.073Z,8103.1
2023-03-17T08:29:02.784Z,8103.1
2023-03-17T08:31:06.189Z,8103.1
2023-03-17T08:33:05.378Z,8518.5
2023-03-17T08:35:06.349Z,8955.3
2023-03-17T08:37:02.627Z,9414.4
2023-03-17T08:39:09.335Z,8955.3
2023-03-17T08:41:09.209Z,9414.4
2023-03-17T08:43:06.111Z,9897.1
2023-03-17T08:45:05.482Z,9897.1
2023-03-17T08:47:05.316Z,10404.6
2023-03-17T08:49:05.843Z,10404.6
2023-03-17T08:51:05.996Z,10404.6
2023-03-17T08:53:08.671Z,10938
2023-03-17T08:55:05.668Z,10938
2023-03-17T08:57:09.295Z,10938
2023-03-17T08:59:05.613Z,10938
2023-03-17T09:01:05.744Z,10938
2023-03-17T09:03:09.113Z,10938
2023-03-17T09:05:05.811Z,10938
2023-03-17T09:07:06.586Z,11498.8
2023-03-17T09:09:06.044Z,11498.8
2023-03-17T09:11:05.985Z,11498.8
2023-03-17T09:13:06.014Z,12088.4
2023-03-17T09:15:05.891Z,12708.2
2023-03-17T09:17:06.104Z,12708.2
2023-03-17T09:19:05.590Z,12088.4
2023-03-17T09:21:06.321Z,12088.4
2023-03-17T09:23:05.415Z,11498.8
2023-03-17T09:25:06.338Z,11498.8
2023-03-17T09:27:09.248Z,12088.4
2023-03-17T09:29:05.635Z,12088.4
2023-03-17T09:31:06.209Z,12088.4
2023-03-17T09:33:06.536Z,12088.4
2023-03-17T09:35:06.087Z,12088.4
2023-03-17T09:37:02.577Z,12708.2
2023-03-17T09:39:06.091Z,12708.2
2023-03-17T09:41:06.019Z,12708.2
2023-03-17T09:43:05.556Z,12708.2
2023-03-17T09:45:06.104Z,12708.2
2023-03-17T09:47:05.334Z,12708.2
2023-03-17T09:49:09.394Z,12708.2
2023-03-17T09:51:05.889Z,12708.2
2023-03-17T09:53:06.292Z,12708.2
2023-03-17T09:55:05.553Z,12708.2
2023-03-17T09:57:06.352Z,13359.7
2023-03-17T09:59:05.295Z,13359.7
2023-03-17T10:01:06.140Z,13359.7
2023-03-17T10:03:05.868Z,13359.7
2023-03-17T10:05:05.775Z,14044.7
2023-03-17T10:07:05.961Z,14044.7
2023-03-17T10:11:05.870Z,14044.7
2023-03-17T10:15:05.298Z,14764.8
2023-03-17T10:17:08.851Z,14764.8
2023-03-17T10:19:02.677Z,14764.8
2023-03-17T10:21:06.283Z,14764.8
2023-03-17T10:23:05.355Z,15521.8
2023-03-17T10:25:05.613Z,15521.8
2023-03-17T10:27:09.144Z,14764.8
2023-03-17T10:29:12.397Z,15521.8
2023-03-17T10:31:09.091Z,14764.8
2023-03-17T10:33:05.769Z,14764.8
2023-03-17T10:35:12.299Z,14764.8
2023-03-17T10:37:05.527Z,14764.8
2023-03-17T10:39:12.347Z,15521.8
2023-03-17T10:41:05.593Z,15521.8
2023-03-17T10:43:05.815Z,15521.8
2023-03-17T10:45:05.305Z,16317.6
2023-03-17T10:47:09.351Z,16317.6
2023-03-17T10:49:05.315Z,16317.6
2023-03-17T10:51:12.362Z,16317.6
2023-03-17T10:55:05.964Z,15521.8
2023-03-17T10:57:05.488Z,15521.8
2023-03-17T10:59:09.339Z,15521.8
2023-03-17T11:01:06.303Z,15521.8
2023-03-17T11:03:09.212Z,15521.8
2023-03-17T11:05:06.172Z,15521.8
2023-03-17T11:07:09.222Z,15521.8
2023-03-17T11:09:05.407Z,15521.8
2023-03-17T11:11:05.331Z,16317.6
2023-03-17T11:13:05.425Z,15521.8
2023-03-17T11:17:05.297Z,15521.8
2023-03-17T11:19:08.714Z,15521.8
2023-03-17T11:21:12.323Z,15521.8
2023-03-17T11:23:06.246Z,15521.8
2023-03-17T11:25:06.060Z,16317.6
2023-03-17T11:27:09.235Z,15521.8
2023-03-17T11:29:09.213Z,15521.8
2023-03-17T11:31:05.784Z,15521.8
2023-03-17T11:33:09.357Z,16317.6
2023-03-17T11:35:05.273Z,16317.6
2023-03-17T11:37:05.960Z,16317.6
2023-03-17T11:39:09.182Z,16317.6
2023-03-17T11:41:05.876Z,16317.6
2023-03-17T11:43:05.922Z,16317.6
2023-03-17T11:45:06.112Z,16317.6
2023-03-17T11:47:05.586Z,16317.6
2023-03-17T11:49:05.497Z,15521.8
2023-03-17T11:51:05.916Z,16317.6
2023-03-17T11:53:12.427Z,16317.6
2023-03-17T11:55:05.293Z,16317.6
2023-03-17T11:57:05.941Z,16317.6
2023-03-17T11:59:05.578Z,16317.6
2023-03-17T12:01:05.284Z,16317.6
2023-03-17T12:03:05.457Z,16317.6
2023-03-17T12:05:12.378Z,16317.6
2023-03-17T12:07:05.932Z,16317.6
2023-03-17T12:11:08.291Z,16317.6
2023-03-17T12:13:09.315Z,16317.6
2023-03-17T12:15:09.341Z,15521.8
2023-03-17T12:17:06.183Z,15521.8
2023-03-17T12:19:09.300Z,15521.8
2023-03-17T12:21:05.733Z,15521.8
2023-03-17T12:23:02.680Z,14764.8
2023-03-17T12:25:05.525Z,15521.8
2023-03-17T12:27:05.910Z,15521.8
2023-03-17T12:29:05.347Z,15521.8
2023-03-17T12:31:05.922Z,15521.8
2023-03-17T12:33:05.542Z,14764.8
2023-03-17T12:35:05.939Z,14764.8
2023-03-17T12:37:08.746Z,14044.7
2023-03-17T12:39:08.774Z,14044.7
2023-03-17T12:41:05.603Z,13359.7
2023-03-17T12:43:05.364Z,13359.7
2023-03-17T12:45:05.838Z,12708.2
2023-03-17T12:47:05.441Z,12088.4
2023-03-17T12:49:05.553Z,12088.4
2023-03-17T12:51:05.339Z,12708.2
2023-03-17T12:53:05.366Z,12708.2
2023-03-17T12:55:12.350Z,12088.4
2023-03-17T12:57:05.325Z,12088.4
2023-03-17T12:59:05.626Z,12088.4
2023-03-17T13:01:08.736Z,12708.2
2023-03-17T13:03:05.672Z,13359.7
2023-03-17T13:05:05.935Z,13359.7
2023-03-17T13:07:05.371Z,13359.7
2023-03-17T13:09:05.471Z,13359.7
2023-03-17T13:11:05.786Z,13359.7
2023-03-17T13:13:06.579Z,12708.2
2023-03-17T13:15:09.160Z,12088.4
2023-03-17T13:17:06.008Z,12088.4
2023-03-17T13:19:05.278Z,12088.4
2023-03-17T13:21:08.782Z,12088.4
2023-03-17T13:23:05.838Z,12088.4
2023-03-17T13:25:05.349Z,12708.2
2023-03-17T13:27:06.113Z,13359.7
2023-03-17T13:29:05.868Z,13359.7
2023-03-17T13:31:05.653Z,13359.7
2023-03-17T13:35:05.748Z,13359.7
2023-03-17T13:37:09.201Z,13359.7
2023-03-17T13:39:18.605Z,14044.7
2023-03-17T13:41:05.381Z,14044.7
2023-03-17T13:45:09.237Z,14764.8
2023-03-17T13:47:05.492Z,14764.8
2023-03-17T13:49:12.405Z,14044.7
2023-03-17T13:51:14.457Z,14044.7
2023-03-17T13:53:05.387Z,13359.7
2023-03-17T13:55:05.964Z,13359.7
2023-03-17T13:57:05.494Z,12708.2
2023-03-17T13:59:05.490Z,12088.4
2023-03-17T14:01:06.143Z,12088.4
2023-03-17T14:03:09.626Z,11498.8
2023-03-17T14:05:05.650Z,11498.8
2023-03-17T14:09:08.760Z,12088.4
2023-03-17T14:11:08.847Z,12088.4
2023-03-17T14:13:02.712Z,12088.4
2023-03-17T14:17:05.489Z,10938
2023-03-17T14:19:05.493Z,10938
2023-03-17T14:21:08.844Z,10404.6
2023-03-17T14:23:06.304Z,10938
2023-03-17T14:25:05.440Z,11498.8
2023-03-17T14:27:05.971Z,10938
2023-03-17T14:29:09.376Z,11498.8
2023-03-17T14:31:09.115Z,11498.8
2023-03-17T14:33:05.486Z,11498.8
2023-03-17T14:37:05.848Z,9897.1
2023-03-17T14:39:06.330Z,9897.1
2023-03-17T14:41:09.223Z,9414.4
2023-03-17T14:43:06.055Z,9414.4
2023-03-17T14:45:05.425Z,9414.4
2023-03-17T14:49:05.423Z,9414.4
2023-03-17T14:51:05.996Z,9897.1
2023-03-17T14:55:05.374Z,9414.4
2023-03-17T14:57:05.624Z,9414.4
2023-03-17T14:59:12.433Z,9414.4
2023-03-17T15:01:05.696Z,9414.4
2023-03-17T15:03:05.585Z,8955.3
2023-03-17T15:05:05.449Z,8955.3
2023-03-17T15:07:09.179Z,8103.1
2023-03-17T15:09:05.426Z,8103.1
2023-03-17T15:11:08.759Z,8103.1
2023-03-17T15:13:05.416Z,8518.5
2023-03-17T15:15:06.092Z,8103.1
2023-03-17T15:17:06.059Z,8955.3
2023-03-17T15:21:05.593Z,11498.8
2023-03-17T15:23:06.110Z,10404.6
2023-03-17T15:25:05.922Z,12088.4
2023-03-17T15:27:09.300Z,8955.3
2023-03-17T15:29:12.099Z,11498.8
2023-03-17T15:31:08.551Z,12088.4
2023-03-17T15:33:05.707Z,12088.4
2023-03-17T15:35:05.898Z,16317.6
2023-03-17T15:37:05.350Z,13359.7
2023-03-17T15:39:05.446Z,8955.3
2023-03-17T15:41:12.378Z,8103.1
2023-03-17T15:43:05.593Z,6634.2
2023-03-17T15:45:05.740Z,5431.7
2023-03-17T15:47:06.094Z,5166.8
2023-03-17T15:51:05.465Z,5431.7
2023-03-17T15:53:06.129Z,4230.2
2023-03-17T15:55:06.115Z,3827.6
2023-03-17T15:57:09.388Z,4675.1
2023-03-17T15:59:05.962Z,4447.1
2023-03-17T16:01:12.468Z,4675.1
2023-03-17T16:03:08.813Z,3133.8
2023-03-17T16:05:05.913Z,3133.8
2023-03-17T16:07:05.334Z,3294.5
2023-03-17T16:09:06.102Z,3294.5
2023-03-17T16:11:09.157Z,4230.2
2023-03-17T16:13:06.205Z,4447.1
2023-03-17T16:15:22.393Z,5431.7
2023-03-17T16:17:05.419Z,4023.9
2023-03-17T16:19:05.606Z,3463.4
2023-03-17T16:21:05.538Z,3463.4
2023-03-17T16:23:08.927Z,2565.7
2023-03-17T16:25:05.588Z,2440.6
2023-03-17T16:27:09.302Z,2321.6
2023-03-17T16:29:07.113Z,2208.3
2023-03-17T16:31:05.518Z,1998.2
2023-03-17T16:33:06.286Z,1808
2023-03-17T16:35:07.568Z,1719.9
2023-03-17T16:37:06.354Z,1556.2
2023-03-17T16:39:09.287Z,1480.3
2023-03-17T16:41:08.668Z,1339.4
2023-03-17T16:45:11.982Z,1096.6
2023-03-17T16:47:05.509Z,992.3
2023-03-17T16:49:08.440Z,897.8
2023-03-17T16:51:06.090Z,735.1
2023-03-17T16:53:12.473Z,632.7
2023-03-17T16:55:05.353Z,572.5
2023-03-17T16:57:07.757Z,518
2023-03-17T16:59:12.547Z,445.9
2023-03-17T17:01:12.447Z,403.4
2023-03-17T17:03:05.497Z,365
2023-03-17T17:05:05.710Z,330.3
2023-03-17T17:07:08.548Z,298.9
2023-03-17T17:09:05.624Z,257.2
2023-03-17T17:11:06.398Z,232.8
2023-03-17T17:13:07.654Z,200.3
2023-03-17T17:15:06.089Z,172.4
2023-03-17T17:17:06.087Z,148.4
2023-03-17T17:19:05.939Z,121.5
2023-03-17T17:21:05.660Z,99.5
2023-03-17T17:23:06.027Z,85.6
2023-03-17T17:25:05.708Z,70.1
2023-03-17T17:27:05.564Z,57.4
2023-03-17T17:29:05.412Z,47
2023-03-17T17:31:06.116Z,36.6
2023-03-17T17:33:05.605Z,27.1
2023-03-17T17:35:05.624Z,20.1
2023-03-17T17:37:05.513Z,14.2
2023-03-17T17:39:09.402Z,9.5
2023-03-17T17:41:05.823Z,6.7
2023-03-17T17:43:09.454Z,4.5
2023-03-17T17:45:05.470Z,3
2023-03-17T17:47:05.751Z,2
2023-03-17T17:49:05.502Z,1.3
2023-03-17T17:51:06.211Z,0.9
2023-03-17T17:53:09.472Z,0.6
2023-03-17T17:55:09.383Z,0.4
2023-03-17T17:57:05.600Z,0.3
2023-03-17T17:59:05.452Z,0.2
2023-03-17T18:01:09.268Z,0.2
2023-03-17T18:03:05.462Z,0.1
2023-03-17T18:05:05.644Z,0.1
2023-03-17T18:07:08.979Z,0
2023-03-17T18:09:06.224Z,0
2023-03-17T18:11:05.667Z,0
2023-03-17T18:13:05.677Z,0
2023-03-17T18:15:09.468Z,1
2023-03-17T18:17:12.364Z,1
2023-03-17T18:19:05.933Z,1
2023-03-17T18:21:06.359Z,1
2023-03-17T18:23:09.450Z,1
2023-03-17T18:25:05.500Z,1
2023-03-17T18:27:05.461Z,1
2023-03-17T18:29:05.918Z,1
2023-03-17T18:31:05.591Z,1
2023-03-17T18:33:09.617Z,1
2023-03-17T18:35:05.786Z,1
2023-03-17T18:37:06.357Z,1
2023-03-17T18:39:05.762Z,1
2023-03-17T18:41:08.628Z,1
2023-03-17T18:43:05.496Z,1
2023-03-17T18:45:05.542Z,1
2023-03-17T18:47:05.691Z,1
2023-03-17T18:49:05.550Z,1
2023-03-17T18:51:05.537Z,1
2023-03-17T18:53:06.318Z,1
2023-03-17T18:55:05.494Z,1
2023-03-17T18:57:06.866Z,1
2023-03-17T18:59:05.470Z,1
2023-03-17T19:01:05.541Z,1
2023-03-17T19:03:05.636Z,1
2023-03-17T19:05:06.352Z,1
2023-03-17T19:07:05.681Z,1
2023-03-17T19:09:05.697Z,1
2023-03-17T19:11:05.620Z,1
2023-03-17T19:13:06.178Z,1
2023-03-17T19:15:08.915Z,1
2023-03-17T19:17:05.461Z,1
2023-03-17T19:19:09.425Z,1
2023-03-17T19:21:06.854Z,1
2023-03-17T19:23:08.535Z,1
2023-03-17T19:25:12.420Z,1
2023-03-17T19:27:05.366Z,1
2023-03-17T19:29:09.379Z,1
2023-03-17T19:31:12.324Z,1
2023-03-17T19:33:06.000Z,1
2023-03-17T19:35:08.537Z,1
2023-03-17T19:37:05.441Z,1
2023-03-17T19:39:05.423Z,1
2023-03-17T19:41:08.545Z,1
2023-03-17T19:43:12.498Z,1
2023-03-17T19:45:08.512Z,1
2023-03-17T19:47:09.525Z,1
2023-03-17T19:49:12.518Z,1
2023-03-17T19:51:05.600Z,1
2023-03-17T19:53:06.165Z,1
2023-03-17T19:55:07.753Z,1
2023-03-17T19:57:09.377Z,1
2023-03-17T19:59:12.462Z,1
2023-03-17T20:01:09.626Z,1
2023-03-17T20:03:06.096Z,1
2023-03-17T20:05:06.091Z,1
2023-03-17T20:07:06.267Z,1
2023-03-17T20:09:06.194Z,1
2023-03-17T20:11:05.629Z,1
2023-03-17T20:13:06.025Z,1
2023-03-17T20:15:06.571Z,1
2023-03-17T20:17:06.058Z,1
2023-03-17T20:19:05.753Z,1
2023-03-17T20:21:05.928Z,1
2023-03-17T20:23:05.700Z,1
2023-03-17T20:25:05.656Z,1
2023-03-17T20:27:05.469Z,1
2023-03-17T20:29:05.455Z,1
2023-03-17T20:31:05.504Z,1
2023-03-17T20:33:12.599Z,1
2023-03-17T20:35:07.831Z,1
2023-03-17T20:37:05.401Z,1
2023-03-17T20:39:05.948Z,1
2023-03-17T20:41:05.689Z,1
2023-03-17T20:43:06.050Z,1
2023-03-17T20:45:05.527Z,1
2023-03-17T20:47:05.498Z,1
2023-03-17T20:49:05.470Z,1
2023-03-17T20:51:05.653Z,1
2023-03-17T20:53:06.013Z,1
2023-03-17T20:55:05.746Z,1
2023-03-17T20:57:05.580Z,1
2023-03-17T20:59:05.576Z,1
2023-03-17T21:01:08.654Z,1
2023-03-17T21:03:05.630Z,1
2023-03-17T21:05:12.497Z,1
2023-03-17T21:07:12.527Z,1
2023-03-17T21:09:08.570Z,1
2023-03-17T21:11:05.675Z,1
2023-03-17T21:13:09.323Z,1
2023-03-17T21:15:05.501Z,1
2023-03-17T21:17:09.318Z,1
2023-03-17T21:19:06.898Z,1
2023-03-17T21:21:12.536Z,1
2023-03-17T21:23:05.464Z,1
2023-03-17T21:25:09.304Z,1
2023-03-17T21:27:06.109Z,1
2023-03-17T21:29:05.461Z,1
2023-03-17T21:31:05.482Z,1
2023-03-17T21:33:06.121Z,1
2023-03-17T21:35:08.930Z,1
2023-03-17T21:37:05.484Z,1
2023-03-17T21:39:09.404Z,1
2023-03-17T21:43:05.463Z,1
2023-03-17T21:45:09.423Z,1
2023-03-17T21:49:09.167Z,1
2023-03-17T21:51:06.237Z,1
2023-03-17T21:53:09.186Z,1
2023-03-17T21:55:05.808Z,1
2023-03-17T21:57:12.435Z,1
2023-03-17T21:59:06.369Z,1
2023-03-17T22:01:09.119Z,1
2023-03-17T22:03:05.505Z,1
2023-03-17T22:07:12.438Z,1
2023-03-17T22:09:06.625Z,1
2023-03-17T22:11:05.505Z,1
2023-03-17T22:13:08.899Z,1
2023-03-17T22:15:05.916Z,1
2023-03-17T22:17:05.797Z,1
2023-03-17T22:19:06.094Z,1
2023-03-17T22:21:05.665Z,1
2023-03-17T22:23:06.247Z,1
2023-03-17T22:25:09.422Z,1
2023-03-17T22:27:12.099Z,1
2023-03-17T22:29:12.510Z,1
2023-03-17T22:31:05.720Z,1
2023-03-17T22:33:05.637Z,1
2023-03-17T22:35:05.454Z,1
2023-03-17T22:37:08.737Z,1
2023-03-17T22:39:09.574Z,1
2023-03-17T22:41:08.556Z,1
2023-03-17T22:43:05.484Z,1
2023-03-17T22:45:06.095Z,1
2023-03-17T22:47:06.174Z,1
2023-03-17T22:49:05.518Z,1
2023-03-17T22:51:06.371Z,1
2023-03-17T22:53:12.476Z,1
2023-03-17T22:55:05.510Z,1
2023-03-17T22:57:06.156Z,1
2023-03-17T22:59:09.117Z,1
2023-03-17T23:01:06.238Z,1
2023-03-17T23:03:05.704Z,1
2023-03-17T23:05:05.645Z,1
2023-03-17T23:07:05.808Z,1
2023-03-17T23:09:09.271Z,1
2023-03-17T23:11:05.808Z,1
2023-03-17T23:13:05.913Z,1
2023-03-17T23:15:05.655Z,1
2023-03-17T23:17:09.432Z,1
2023-03-17T23:19:09.142Z,1
2023-03-17T23:21:09.396Z,1
2023-03-17T23:23:09.433Z,1
2023-03-17T23:25:05.957Z,1
2023-03-17T23:27:06.260Z,1
2023-03-17T23:29:06.192Z,1
2023-03-17T23:31:05.821Z,1
2023-03-17T23:33:08.641Z,1
2023-03-17T23:35:09.438Z,1
2023-03-17T23:37:06.237Z,1
2023-03-17T23:39:09.452Z,1
2023-03-17T23:41:05.652Z,1
2023-03-17T23:43:05.694Z,1
2023-03-17T23:45:05.445Z,1
2023-03-17T23:47:08.548Z,1
2023-03-17T23:49:09.376Z,1
2023-03-17T23:51:05.595Z,1
2023-03-17T23:53:05.871Z,1
2023-03-17T23:55:12.523Z,1
2023-03-17T23:57:05.506Z,1
2023-03-17T23:59:09.377Z,1
